Time;durP1;ratioP1;P1;durP2;ratioP2;P2;SDS_P1;SDS_P2;PMS_P1;PMS_P2;Temp;Humidity;BMP_temperature;BMP_pressure;BME280_temperature;BME280_humidity;BME280_pressure;Samples;Min_cycle;Max_cycle;Signal;HPM_P1;HPM_P2
2023/12/25 00:01:21;;;;;;;0.00;0.00;;;10.80;99.90;;;;;;5051100;28;20641;-70
2023/12/25 00:03:47;;;;;;;0.00;0.00;;;10.80;99.90;;;;;;5047131;28;20718;-70
2023/12/25 00:06:12;;;;;;;0.00;0.00;;;10.80;99.90;;;;;;5051794;28;20181;-70
2023/12/25 00:08:38;;;;;;;0.00;0.00;;;10.70;99.90;;;;;;5050742;28;20664;-70
2023/12/25 00:11:04;;;;;;;0.00;0.00;;;10.70;99.90;;;;;;5049673;28;20552;-69
2023/12/25 00:13:29;;;;;;;0.00;0.00;;;10.80;99.90;;;;;;5050767;28;20173;-70
2023/12/25 00:15:55;;;;;;;0.00;0.00;;;10.80;99.90;;;;;;5051010;28;20185;-70
2023/12/25 00:18:20;;;;;;;0.00;0.00;;;10.80;99.90;;;;;;5050921;28;20242;-70
2023/12/25 00:20:46;;;;;;;0.00;0.00;;;10.70;99.90;;;;;;5050531;28;20259;-72
2023/12/25 00:23:11;;;;;;;0.00;0.00;;;10.70;99.90;;;;;;5050265;28;20189;-71
2023/12/25 00:25:37;;;;;;;0.00;0.00;;;10.70;99.90;;;;;;5050768;28;20694;-70
2023/12/25 00:28:03;;;;;;;0.00;0.00;;;10.70;99.90;;;;;;5049440;28;20645;-71
2023/12/25 00:30:28;;;;;;;0.03;0.03;;;10.70;99.90;;;;;;5050418;28;20181;-69
2023/12/25 00:32:54;;;;;;;0.00;0.00;;;10.70;99.90;;;;;;5049905;28;20597;-71
2023/12/25 00:35:19;;;;;;;0.00;0.00;;;10.70;99.90;;;;;;5052190;28;20173;-70
2023/12/25 00:37:45;;;;;;;0.00;0.00;;;10.70;99.90;;;;;;5050629;28;20185;-69
2023/12/25 00:40:11;;;;;;;0.00;0.00;;;10.70;99.90;;;;;;5050402;28;20408;-69
2023/12/25 00:42:36;;;;;;;0.00;0.00;;;10.70;99.90;;;;;;5050020;28;20655;-70
2023/12/25 00:45:02;;;;;;;0.00;0.00;;;10.70;99.90;;;;;;5050000;28;20209;-70
2023/12/25 00:47:27;;;;;;;0.00;0.00;;;10.70;99.90;;;;;;5050842;28;20182;-69
2023/12/25 00:49:53;;;;;;;0.00;0.00;;;10.70;99.90;;;;;;5050474;28;20633;-70
2023/12/25 00:52:19;;;;;;;0.00;0.00;;;10.60;99.90;;;;;;5049180;28;20213;-70
2023/12/25 00:54:45;;;;;;;0.00;0.00;;;10.60;99.90;;;;;;5051047;28;20648;-69
2023/12/25 00:57:10;;;;;;;0.00;0.00;;;10.70;99.90;;;;;;5050619;28;20199;-70
2023/12/25 00:59:36;;;;;;;0.00;0.00;;;10.60;99.90;;;;;;5049628;28;20173;-71
2023/12/25 01:02:01;;;;;;;0.00;0.00;;;10.60;99.90;;;;;;5050818;28;20201;-70
2023/12/25 01:04:27;;;;;;;0.00;0.00;;;10.60;99.90;;;;;;5050281;28;20213;-69
2023/12/25 01:06:52;;;;;;;0.00;0.00;;;10.60;99.90;;;;;;5068807;28;20690;-69
2023/12/25 01:09:18;;;;;;;0.00;0.00;;;10.60;99.90;;;;;;5050474;28;20213;-69
2023/12/25 01:11:44;;;;;;;0.00;0.00;;;10.60;99.90;;;;;;5050372;28;20258;-69
2023/12/25 01:14:10;;;;;;;0.00;0.00;;;10.60;99.90;;;;;;5050197;28;20200;-69
2023/12/25 01:16:36;;;;;;;0.00;0.00;;;10.60;99.90;;;;;;5050197;28;20180;-68
2023/12/25 01:19:02;;;;;;;0.00;0.00;;;10.60;99.90;;;;;;5050057;28;20189;-70
2023/12/25 01:21:28;;;;;;;0.00;0.00;;;10.60;99.90;;;;;;5050228;28;20289;-69
2023/12/25 01:23:53;;;;;;;0.00;0.00;;;10.60;99.90;;;;;;5050172;28;20217;-70
2023/12/25 01:26:19;;;;;;;0.00;0.00;;;10.60;99.90;;;;;;5050365;28;20185;-70
2023/12/25 01:28:45;;;;;;;0.00;0.00;;;10.60;99.90;;;;;;5049975;28;20173;-69
2023/12/25 01:31:10;;;;;;;0.00;0.00;;;10.60;99.90;;;;;;5049954;28;20182;-70
2023/12/25 01:33:36;;;;;;;0.00;0.00;;;10.50;99.90;;;;;;5050220;28;20186;-69
2023/12/25 01:36:02;;;;;;;0.00;0.00;;;10.50;99.90;;;;;;5054638;28;20624;-71
2023/12/25 01:38:27;;;;;;;0.00;0.00;;;10.50;99.90;;;;;;5049813;28;20279;-71
2023/12/25 01:40:53;;;;;;;0.00;0.00;;;10.50;99.90;;;;;;5050023;28;20216;-71
2023/12/25 01:43:18;;;;;;;0.00;0.00;;;10.50;99.90;;;;;;5050028;28;20181;-71
2023/12/25 01:45:44;;;;;;;0.00;0.00;;;10.50;99.90;;;;;;5049835;28;20181;-72
2023/12/25 01:48:11;;;;;;;0.00;0.00;;;10.50;99.90;;;;;;5049346;28;20273;-72
2023/12/25 01:50:37;;;;;;;0.00;0.00;;;10.50;99.90;;;;;;5049799;28;20239;-71
2023/12/25 01:53:04;;;;;;;0.00;0.00;;;10.50;99.90;;;;;;5049990;28;20256;-69
2023/12/25 01:55:30;;;;;;;0.00;0.00;;;10.50;99.90;;;;;;5053440;28;20649;-69
2023/12/25 01:57:55;;;;;;;0.00;0.00;;;10.40;99.90;;;;;;5053403;28;20177;-69
2023/12/25 02:00:21;;;;;;;0.00;0.00;;;10.50;99.90;;;;;;5053739;28;20189;-70
2023/12/25 02:02:46;;;;;;;0.00;0.00;;;10.50;99.90;;;;;;5048672;28;20233;-70
2023/12/25 02:05:12;;;;;;;0.00;0.00;;;10.40;99.90;;;;;;5055182;28;20672;-69
2023/12/25 02:07:41;;;;;;;0.00;0.00;;;10.50;99.90;;;;;;5057688;28;20185;-68
2023/12/25 02:10:08;;;;;;;0.00;0.00;;;10.50;99.90;;;;;;5051962;28;20186;-69
2023/12/25 02:12:34;;;;;;;0.00;0.00;;;10.50;99.90;;;;;;5053000;28;20189;-70
2023/12/25 02:15:01;;;;;;;0.00;0.00;;;10.40;99.90;;;;;;5053291;28;20173;-69
2023/12/25 02:17:27;;;;;;;0.00;0.00;;;10.50;99.90;;;;;;5051480;28;20234;-70
2023/12/25 02:19:54;;;;;;;0.00;0.00;;;10.40;99.90;;;;;;5052802;28;20633;-69
2023/12/25 02:22:19;;;;;;;0.00;0.00;;;10.50;99.90;;;;;;5052709;28;20304;-71
2023/12/25 02:25:07;;;;;;;0.00;0.00;;;10.40;99.90;;;;;;5052795;28;20292;-68
2023/12/25 02:27:33;;;;;;;0.00;0.00;;;10.40;99.90;;;;;;5049246;28;20653;-70
2023/12/25 02:29:58;;;;;;;0.00;0.00;;;10.40;99.90;;;;;;5052894;28;20193;-69
2023/12/25 02:32:24;;;;;;;0.00;0.00;;;10.40;99.90;;;;;;5051790;28;20633;-69
2023/12/25 02:34:50;;;;;;;0.00;0.00;;;10.40;99.90;;;;;;5053346;28;20263;-69
2023/12/25 02:37:15;;;;;;;0.00;0.00;;;10.40;99.90;;;;;;5054540;28;20189;-70
2023/12/25 02:39:41;;;;;;;0.00;0.00;;;10.40;99.90;;;;;;5052290;28;20687;-70
2023/12/25 02:42:06;;;;;;;0.00;0.00;;;10.40;99.90;;;;;;5052628;28;20201;-70
2023/12/25 02:44:32;;;;;;;0.00;0.00;;;10.40;99.90;;;;;;5052519;28;20262;-69
2023/12/25 02:46:57;;;;;;;0.00;0.00;;;10.40;99.90;;;;;;5051221;28;20641;-68
2023/12/25 02:49:23;;;;;;;0.00;0.00;;;10.40;99.90;;;;;;5051964;28;20694;-68
2023/12/25 02:51:48;;;;;;;0.00;0.00;;;10.30;99.90;;;;;;5053869;28;20265;-67
2023/12/25 02:54:14;;;;;;;0.08;0.08;;;10.30;99.90;;;;;;5054613;28;20185;-68
2023/12/25 02:56:40;;;;;;;0.00;0.00;;;10.40;99.90;;;;;;5053865;28;20177;-68
2023/12/25 02:59:05;;;;;;;0.00;0.00;;;10.40;99.90;;;;;;5054367;28;20189;-68
2023/12/25 03:01:31;;;;;;;0.00;0.00;;;10.30;99.90;;;;;;5053860;28;20185;-67
2023/12/25 03:03:56;;;;;;;0.00;0.00;;;10.40;99.90;;;;;;5046845;28;20300;-68
2023/12/25 03:06:22;;;;;;;0.00;0.00;;;10.30;99.90;;;;;;5054602;28;20186;-68
2023/12/25 03:08:48;;;;;;;0.00;0.00;;;10.30;99.90;;;;;;5052748;28;20193;-68
2023/12/25 03:11:13;;;;;;;0.00;0.00;;;10.30;99.90;;;;;;5052757;28;20192;-68
2023/12/25 03:13:39;;;;;;;0.00;0.00;;;10.30;99.90;;;;;;5051171;28;20700;-68
2023/12/25 03:16:08;;;;;;;0.00;0.00;;;10.30;99.90;;;;;;5052224;28;20177;-67
2023/12/25 03:18:34;;;;;;;0.00;0.00;;;10.30;99.90;;;;;;5052457;28;20178;-69
2023/12/25 03:20:59;;;;;;;0.00;0.00;;;10.30;99.90;;;;;;5051789;28;20510;-70
2023/12/25 03:23:25;;;;;;;0.00;0.00;;;10.30;99.90;;;;;;5051260;28;20178;-70
2023/12/25 03:25:51;;;;;;;0.00;0.00;;;10.30;99.90;;;;;;5051482;28;20532;-69
2023/12/25 03:28:16;;;;;;;0.00;0.00;;;10.30;99.90;;;;;;5052102;28;20291;-69
2023/12/25 03:30:42;;;;;;;0.00;0.00;;;10.30;99.90;;;;;;5051490;28;20660;-68
2023/12/25 03:33:07;;;;;;;0.00;0.00;;;10.30;99.90;;;;;;5051696;28;20187;-70
2023/12/25 03:35:36;;;;;;;0.00;0.00;;;10.30;99.90;;;;;;5051714;28;20260;-69
2023/12/25 03:38:02;;;;;;;0.00;0.00;;;10.30;99.90;;;;;;5051310;28;20243;-69
2023/12/25 03:40:27;;;;;;;0.00;0.00;;;10.30;99.90;;;;;;5050174;28;21096;-69
2023/12/25 03:42:54;;;;;;;0.00;0.00;;;10.30;99.90;;;;;;5051173;28;20228;-69
2023/12/25 03:45:20;;;;;;;0.00;0.00;;;10.20;99.90;;;;;;5051167;28;20213;-68
2023/12/25 03:47:45;;;;;;;0.00;0.00;;;10.20;99.90;;;;;;5051302;28;20180;-68
2023/12/25 03:50:11;;;;;;;0.00;0.00;;;10.20;99.90;;;;;;5064497;28;20178;-68
2023/12/25 03:52:36;;;;;;;0.15;0.15;;;10.20;99.90;;;;;;5051402;28;20184;-68
2023/12/25 03:55:02;;;;;;;0.00;0.00;;;10.20;99.90;;;;;;5051172;28;20196;-68
2023/12/25 03:57:27;;;;;;;0.00;0.00;;;10.20;99.90;;;;;;5051015;28;20189;-69
2023/12/25 03:59:53;;;;;;;0.00;0.00;;;10.20;99.90;;;;;;5051385;28;20603;-69
2023/12/25 04:02:19;;;;;;;0.00;0.00;;;10.20;99.90;;;;;;5051191;28;20185;-68
2023/12/25 04:04:44;;;;;;;0.00;0.00;;;10.20;99.90;;;;;;5051437;28;20227;-68
2023/12/25 04:07:10;;;;;;;0.00;0.00;;;10.20;99.90;;;;;;5056470;28;20695;-69
2023/12/25 04:09:35;;;;;;;0.00;0.00;;;10.20;99.90;;;;;;5050766;28;20177;-69
2023/12/25 04:12:01;;;;;;;0.00;0.00;;;10.20;99.90;;;;;;5049629;28;20182;-68
2023/12/25 04:14:26;;;;;;;0.00;0.00;;;10.20;99.90;;;;;;5050941;28;20185;-68
2023/12/25 04:16:52;;;;;;;0.00;0.00;;;10.20;99.90;;;;;;5050455;28;20181;-68
2023/12/25 04:19:18;;;;;;;0.00;0.00;;;10.10;99.90;;;;;;5050894;28;20669;-68
2023/12/25 04:21:43;;;;;;;0.00;0.00;;;10.20;99.90;;;;;;5060605;28;20212;-68
2023/12/25 04:24:09;;;;;;;0.05;0.05;;;10.20;99.90;;;;;;5049237;28;20223;-69
2023/12/25 04:26:34;;;;;;;0.00;0.00;;;10.10;99.90;;;;;;5050851;28;20182;-68
2023/12/25 04:29:00;;;;;;;0.00;0.00;;;10.10;99.90;;;;;;5050839;28;20173;-69
2023/12/25 04:31:26;;;;;;;0.00;0.00;;;10.10;99.90;;;;;;5050899;28;20222;-69
2023/12/25 04:33:52;;;;;;;0.00;0.00;;;10.10;99.90;;;;;;5050570;28;20182;-69
2023/12/25 04:36:17;;;;;;;0.00;0.00;;;10.10;99.90;;;;;;5050635;28;20203;-68
2023/12/25 04:38:43;;;;;;;0.00;0.00;;;10.10;99.90;;;;;;5050354;28;20243;-68
2023/12/25 04:41:08;;;;;;;0.00;0.00;;;10.10;99.90;;;;;;5050671;28;20280;-70
2023/12/25 04:43:34;;;;;;;0.00;0.00;;;10.00;99.90;;;;;;5050618;28;20189;-69
2023/12/25 04:46:02;;;;;;;0.00;0.00;;;10.00;99.90;;;;;;5050819;28;20192;-71
2023/12/25 04:48:28;;;;;;;0.00;0.00;;;10.00;99.90;;;;;;5050778;28;20235;-69
2023/12/25 04:50:54;;;;;;;0.00;0.00;;;10.00;99.90;;;;;;5050587;28;20177;-69
2023/12/25 04:53:20;;;;;;;0.00;0.00;;;10.00;99.90;;;;;;5050611;28;20261;-70
2023/12/25 04:55:46;;;;;;;0.00;0.00;;;10.00;99.90;;;;;;5049258;28;20276;-70
2023/12/25 04:58:11;;;;;;;0.00;0.00;;;10.00;99.90;;;;;;5050698;28;20264;-69
2023/12/25 05:00:37;;;;;;;0.00;0.00;;;10.00;99.90;;;;;;5049404;28;20185;-70
2023/12/25 05:03:03;;;;;;;0.00;0.00;;;10.00;99.90;;;;;;5044331;28;20186;-69
2023/12/25 05:05:29;;;;;;;0.00;0.00;;;10.00;99.90;;;;;;5056471;28;20247;-69
2023/12/25 05:07:54;;;;;;;0.00;0.00;;;9.90;99.90;;;;;;5051431;28;20657;-69
2023/12/25 05:10:20;;;;;;;0.00;0.00;;;9.90;99.90;;;;;;5049703;28;20181;-69
2023/12/25 05:12:45;;;;;;;0.00;0.00;;;9.90;99.90;;;;;;5050192;28;20181;-68
2023/12/25 05:15:11;;;;;;;0.00;0.00;;;9.90;99.90;;;;;;5050211;28;20173;-68
2023/12/25 05:17:36;;;;;;;0.00;0.00;;;9.90;99.90;;;;;;5049041;28;20196;-69
2023/12/25 05:20:02;;;;;;;0.00;0.00;;;9.90;99.90;;;;;;5049755;28;20561;-69
2023/12/25 05:22:28;;;;;;;0.00;0.00;;;9.90;99.90;;;;;;5049538;28;20189;-69
2023/12/25 05:24:54;;;;;;;0.00;0.00;;;9.90;99.90;;;;;;5048453;28;20709;-68
2023/12/25 05:27:19;;;;;;;0.00;0.00;;;9.90;99.90;;;;;;5049916;28;20185;-68
2023/12/25 05:29:45;;;;;;;0.00;0.00;;;9.90;99.90;;;;;;5052913;28;20177;-69
2023/12/25 05:32:11;;;;;;;0.00;0.00;;;9.90;99.90;;;;;;5054171;28;20185;-69
2023/12/25 05:34:36;;;;;;;0.00;0.00;;;9.90;99.90;;;;;;5053811;28;20177;-69
2023/12/25 05:37:02;;;;;;;0.00;0.00;;;9.80;99.90;;;;;;5054951;28;20220;-69
2023/12/25 05:39:27;;;;;;;0.00;0.00;;;9.80;99.90;;;;;;5053263;28;20802;-70
2023/12/25 05:41:53;;;;;;;0.00;0.00;;;9.80;99.90;;;;;;5053596;28;20200;-70
2023/12/25 05:44:19;;;;;;;0.00;0.00;;;9.80;99.90;;;;;;5053807;28;20244;-68
2023/12/25 05:46:44;;;;;;;0.00;0.00;;;9.80;99.90;;;;;;5053700;28;20667;-71
2023/12/25 05:49:10;;;;;;;0.00;0.00;;;9.80;99.90;;;;;;5053670;28;20195;-69
2023/12/25 05:51:35;;;;;;;0.00;0.00;;;9.90;99.90;;;;;;5053463;28;20174;-69
2023/12/25 05:54:01;;;;;;;0.00;0.00;;;9.90;99.90;;;;;;5053274;28;20200;-69
2023/12/25 05:56:27;;;;;;;0.00;0.00;;;9.90;99.90;;;;;;5053510;28;20189;-69
2023/12/25 05:58:52;;;;;;;0.00;0.00;;;9.90;99.90;;;;;;5053344;28;20194;-69
2023/12/25 06:01:18;;;;;;;0.00;0.00;;;9.80;99.90;;;;;;5053568;28;20204;-70
2023/12/25 06:03:44;;;;;;;0.00;0.00;;;9.90;99.90;;;;;;5052987;28;20276;-69
2023/12/25 06:06:10;;;;;;;0.00;0.00;;;9.90;99.90;;;;;;5048500;28;20185;-69
2023/12/25 06:08:36;;;;;;;0.00;0.00;;;9.90;99.90;;;;;;5053164;28;20177;-71
2023/12/25 06:11:01;;;;;;;0.00;0.00;;;9.90;99.90;;;;;;5053122;28;20185;-69
2023/12/25 06:13:27;;;;;;;0.00;0.00;;;9.90;99.90;;;;;;5053222;28;20185;-70
2023/12/25 06:15:53;;;;;;;0.00;0.00;;;9.90;99.90;;;;;;5053169;28;20539;-69
2023/12/25 06:18:18;;;;;;;0.00;0.00;;;9.90;99.90;;;;;;5053307;28;20197;-71
2023/12/25 06:20:44;;;;;;;0.00;0.00;;;9.90;99.90;;;;;;5052809;28;20212;-69
2023/12/25 06:23:10;;;;;;;0.00;0.00;;;9.90;99.90;;;;;;5052892;28;20228;-69
2023/12/25 06:25:36;;;;;;;0.00;0.00;;;9.80;99.90;;;;;;5051723;28;20221;-69
2023/12/25 06:28:02;;;;;;;0.00;0.00;;;9.80;99.90;;;;;;5052876;28;20173;-70
2023/12/25 06:30:28;;;;;;;0.00;0.00;;;9.90;99.90;;;;;;5053095;28;20185;-70
2023/12/25 06:32:53;;;;;;;0.00;0.00;;;9.90;99.90;;;;;;5052826;28;20667;-70
2023/12/25 06:35:19;;;;;;;0.00;0.00;;;9.90;99.90;;;;;;5058075;28;20189;-69
2023/12/25 06:37:44;;;;;;;0.00;0.00;;;9.90;99.90;;;;;;5069780;28;20696;-68
2023/12/25 06:40:11;;;;;;;0.00;0.00;;;9.90;99.90;;;;;;5052002;28;20225;-69
2023/12/25 06:42:36;;;;;;;0.00;0.00;;;9.90;99.90;;;;;;5052735;28;20295;-70
2023/12/25 06:45:02;;;;;;;0.00;0.00;;;9.90;99.90;;;;;;5052538;28;20229;-69
2023/12/25 06:47:27;;;;;;;0.00;0.00;;;9.80;99.90;;;;;;5051339;28;20189;-70
2023/12/25 06:49:53;;;;;;;0.00;0.00;;;9.80;99.90;;;;;;5052778;28;20174;-71
2023/12/25 06:52:19;;;;;;;0.00;0.00;;;9.90;99.90;;;;;;5052680;28;20586;-71
2023/12/25 06:54:45;;;;;;;0.00;0.00;;;9.90;99.90;;;;;;5052510;28;20641;-70
2023/12/25 06:57:11;;;;;;;0.00;0.00;;;9.90;99.90;;;;;;5052514;28;20176;-70
2023/12/25 06:59:37;;;;;;;0.10;0.10;;;9.80;99.90;;;;;;5052367;28;20190;-69
2023/12/25 07:02:03;;;;;;;0.00;0.00;;;9.90;99.90;;;;;;5052401;28;20264;-69
2023/12/25 07:04:29;;;;;;;0.00;0.00;;;9.90;99.90;;;;;;5052257;28;20308;-68
2023/12/25 07:06:54;;;;;;;0.00;0.00;;;9.80;99.90;;;;;;5061206;28;20185;-69
2023/12/25 07:09:20;;;;;;;0.00;0.00;;;9.80;99.90;;;;;;5052290;28;20181;-69
2023/12/25 07:11:45;;;;;;;0.00;0.00;;;9.80;99.90;;;;;;5052379;28;20184;-68
2023/12/25 07:14:11;;;;;;;0.00;0.00;;;9.80;99.90;;;;;;5051697;28;20208;-70
2023/12/25 07:16:36;;;;;;;0.13;0.10;;;9.90;99.90;;;;;;5052134;28;20637;-69
2023/12/25 07:19:02;;;;;;;0.00;0.00;;;9.80;99.90;;;;;;5051651;28;20653;-68
2023/12/25 07:21:28;;;;;;;0.00;0.00;;;9.80;99.90;;;;;;5050629;28;20193;-68
2023/12/25 07:23:56;;;;;;;0.00;0.00;;;9.80;99.90;;;;;;5051939;28;20666;-70
2023/12/25 07:26:22;;;;;;;0.00;0.00;;;9.80;99.90;;;;;;5052923;28;20208;-70
2023/12/25 07:28:48;;;;;;;0.00;0.00;;;9.80;99.90;;;;;;5052166;28;20660;-69
2023/12/25 07:31:15;;;;;;;0.00;0.00;;;9.80;99.90;;;;;;5052313;28;20195;-68
2023/12/25 07:33:40;;;;;;;0.00;0.00;;;9.80;99.90;;;;;;5052192;28;20173;-70
2023/12/25 07:36:06;;;;;;;0.00;0.00;;;9.80;99.90;;;;;;5063652;28;20238;-69
2023/12/25 07:38:31;;;;;;;0.00;0.00;;;9.80;99.90;;;;;;5071645;28;20164;-69
2023/12/25 07:40:57;;;;;;;0.00;0.00;;;9.80;99.90;;;;;;5052065;28;20533;-69
2023/12/25 07:43:24;;;;;;;0.00;0.00;;;9.80;99.90;;;;;;5050615;28;20252;-71
2023/12/25 07:45:50;;;;;;;0.00;0.00;;;9.80;99.90;;;;;;5050764;28;20222;-69
2023/12/25 07:48:16;;;;;;;0.00;0.00;;;9.80;99.90;;;;;;5051498;28;20185;-69
2023/12/25 07:50:42;;;;;;;0.00;0.00;;;9.80;99.90;;;;;;5050910;28;20170;-67
2023/12/25 07:53:08;;;;;;;0.00;0.00;;;9.80;99.90;;;;;;5051229;28;20177;-69
2023/12/25 07:55:36;;;;;;;0.00;0.00;;;9.80;99.90;;;;;;5051218;28;20224;-69
2023/12/25 07:58:02;;;;;;;0.00;0.00;;;9.80;99.90;;;;;;5051145;28;20641;-68
2023/12/25 08:00:27;;;;;;;0.00;0.00;;;9.80;99.90;;;;;;5050949;28;20251;-69
2023/12/25 08:02:53;;;;;;;0.00;0.00;;;9.60;99.90;;;;;;5051444;28;20687;-69
2023/12/25 08:05:19;;;;;;;0.00;0.00;;;9.80;99.90;;;;;;5055927;28;20743;-70
2023/12/25 08:07:44;;;;;;;0.00;0.00;;;9.80;99.90;;;;;;5051577;28;20228;-69
2023/12/25 08:10:11;;;;;;;0.00;0.00;;;9.70;99.90;;;;;;5051300;28;20632;-67
2023/12/25 08:12:37;;;;;;;0.00;0.00;;;9.80;99.90;;;;;;5050273;28;20195;-69
2023/12/25 08:15:03;;;;;;;0.00;0.00;;;9.70;99.90;;;;;;5050139;28;20684;-71
2023/12/25 08:17:29;;;;;;;0.00;0.00;;;9.70;99.90;;;;;;5050955;28;20239;-69
2023/12/25 08:19:54;;;;;;;0.00;0.00;;;9.70;99.90;;;;;;5050704;28;20177;-65
2023/12/25 08:22:20;;;;;;;0.00;0.00;;;9.70;99.90;;;;;;5050558;28;20746;-72
2023/12/25 08:24:45;;;;;;;0.00;0.00;;;9.70;99.90;;;;;;5050326;28;20220;-66
2023/12/25 08:27:11;;;;;;;0.00;0.00;;;9.70;99.90;;;;;;5050788;28;20215;-65
2023/12/25 08:29:37;;;;;;;0.00;0.00;;;9.70;99.90;;;;;;5050917;28;20189;-67
2023/12/25 08:32:02;;;;;;;0.00;0.00;;;9.60;99.90;;;;;;5050603;28;20551;-67
2023/12/25 08:34:28;;;;;;;0.00;0.00;;;9.60;99.90;;;;;;5050582;28;20560;-67
2023/12/25 08:36:53;;;;;;;0.00;0.00;;;9.60;99.90;;;;;;5049260;28;20300;-67
2023/12/25 08:39:19;;;;;;;0.00;0.00;;;9.60;99.90;;;;;;5050047;28;20628;-65
2023/12/25 08:41:45;;;;;;;0.00;0.00;;;9.60;99.90;;;;;;5050676;28;20177;-65
2023/12/25 08:44:10;;;;;;;0.00;0.00;;;9.50;99.90;;;;;;5050355;28;20213;-69
2023/12/25 08:46:36;;;;;;;0.00;0.00;;;9.50;99.90;;;;;;5049382;28;20846;-68
2023/12/25 08:49:01;;;;;;;0.00;0.00;;;9.60;99.90;;;;;;5049781;28;20185;-67
2023/12/25 08:51:27;;;;;;;0.00;0.00;;;9.60;99.90;;;;;;5050794;28;20169;-67
2023/12/25 08:53:52;;;;;;;0.00;0.00;;;9.50;99.90;;;;;;5050391;28;20633;-67
2023/12/25 08:56:23;;;;;;;0.00;0.00;;;9.50;99.90;;;;;;5050746;28;20174;-67
2023/12/25 08:58:48;;;;;;;0.00;0.00;;;9.50;99.90;;;;;;5050568;28;20181;-67
2023/12/25 09:01:15;;;;;;;0.00;0.00;;;9.60;99.90;;;;;;5050487;28;20702;-67
2023/12/25 09:03:40;;;;;;;0.00;0.00;;;9.50;99.90;;;;;;5053728;28;20189;-67
2023/12/25 09:06:06;;;;;;;0.00;0.00;;;9.50;99.90;;;;;;5055594;28;20181;-67
2023/12/25 09:08:32;;;;;;;0.00;0.00;;;9.50;99.90;;;;;;5054565;28;20192;-68
2023/12/25 09:10:57;;;;;;;0.00;0.00;;;9.50;99.90;;;;;;5052890;28;20599;-68
2023/12/25 09:13:23;;;;;;;0.00;0.00;;;9.50;99.90;;;;;;5054628;28;20173;-68
2023/12/25 09:15:49;;;;;;;0.00;0.00;;;9.40;99.90;;;;;;5054183;28;20671;-69
2023/12/25 09:18:14;;;;;;;0.32;0.17;;;9.40;99.90;;;;;;5054676;28;20177;-67
2023/12/25 09:20:40;;;;;;;0.00;0.00;;;9.40;99.90;;;;;;5053048;28;20178;-66
2023/12/25 09:23:05;;;;;;;0.00;0.00;;;9.40;99.90;;;;;;5054029;28;20652;-66
2023/12/25 09:25:31;;;;;;;0.00;0.00;;;9.40;99.90;;;;;;5054139;28;20217;-66
2023/12/25 09:27:56;;;;;;;0.00;0.00;;;9.40;99.90;;;;;;5054292;28;20558;-66
2023/12/25 09:30:22;;;;;;;0.00;0.00;;;9.40;99.90;;;;;;5055430;28;20220;-66
2023/12/25 09:32:48;;;;;;;0.00;0.00;;;9.40;99.90;;;;;;5055775;28;20205;-66
2023/12/25 09:35:15;;;;;;;0.00;0.00;;;9.40;99.90;;;;;;5057605;28;20189;-65
2023/12/25 09:37:41;;;;;;;0.00;0.00;;;9.40;99.90;;;;;;5055982;28;20177;-67
2023/12/25 09:40:07;;;;;;;0.00;0.00;;;9.50;99.90;;;;;;5056072;28;20221;-66
2023/12/25 09:42:33;;;;;;;0.00;0.00;;;9.50;99.90;;;;;;5054836;28;20208;-66
2023/12/25 09:44:59;;;;;;;0.00;0.00;;;9.50;99.90;;;;;;5053870;28;20244;-66
2023/12/25 09:47:25;;;;;;;0.00;0.00;;;9.50;99.90;;;;;;5054568;28;20759;-66
2023/12/25 09:49:53;;;;;;;0.22;0.22;;;9.60;99.90;;;;;;5055336;28;20679;-66
2023/12/25 09:52:20;;;;;;;0.00;0.00;;;9.60;99.90;;;;;;5055710;28;20189;-67
2023/12/25 09:54:46;;;;;;;0.00;0.00;;;9.60;99.90;;;;;;5053746;28;20180;-68
2023/12/25 09:57:13;;;;;;;0.00;0.00;;;9.60;99.90;;;;;;5054296;28;20540;-67
2023/12/25 09:59:40;;;;;;;0.00;0.00;;;9.70;99.90;;;;;;5054843;28;20180;-67
2023/12/25 10:02:06;;;;;;;0.00;0.00;;;9.70;99.90;;;;;;5053803;28;20315;-68
2023/12/25 10:04:36;;;;;;;0.00;0.00;;;9.70;99.90;;;;;;5047259;28;20296;-68
2023/12/25 10:07:02;;;;;;;0.00;0.00;;;9.70;99.90;;;;;;5053582;28;20529;-68
2023/12/25 10:09:30;;;;;;;0.00;0.00;;;9.70;99.90;;;;;;5052894;28;20205;-67
2023/12/25 10:11:55;;;;;;;0.00;0.00;;;9.70;99.90;;;;;;5051751;28;20170;-68
2023/12/25 10:14:21;;;;;;;0.00;0.00;;;9.80;99.90;;;;;;5052206;28;20182;-68
2023/12/25 10:16:47;;;;;;;0.00;0.00;;;9.80;99.90;;;;;;5053403;28;20182;-68
2023/12/25 10:19:12;;;;;;;0.00;0.00;;;9.80;99.90;;;;;;5053063;28;20569;-68
2023/12/25 10:21:45;;;;;;;0.00;0.00;;;9.80;99.90;;;;;;5052024;28;20580;-68
2023/12/25 10:24:12;;;;;;;0.00;0.00;;;9.80;99.90;;;;;;5064071;28;20773;-68
2023/12/25 10:26:38;;;;;;;0.00;0.00;;;9.90;99.90;;;;;;5053300;28;20208;-68
2023/12/25 10:29:08;;;;;;;0.00;0.00;;;9.90;99.90;;;;;;5052518;28;20178;-69
2023/12/25 10:31:36;;;;;;;0.00;0.00;;;9.90;99.90;;;;;;5053281;28;20178;-68
2023/12/25 10:34:01;;;;;;;0.00;0.00;;;9.90;99.90;;;;;;5052759;28;20216;-68
2023/12/25 10:36:27;;;;;;;0.00;0.00;;;9.90;99.90;;;;;;5054768;28;20262;-68
2023/12/25 10:38:52;;;;;;;0.10;0.10;;;10.00;99.90;;;;;;5052321;28;20225;-67
2023/12/25 10:41:27;;;;;;;0.00;0.00;;;10.10;99.90;;;;;;5052839;28;20189;-67
2023/12/25 10:43:56;;;;;;;0.00;0.00;;;10.20;99.90;;;;;;5052485;28;20184;-67
2023/12/25 10:46:26;;;;;;;0.10;0.03;;;10.20;99.90;;;;;;5052767;28;20187;-67
2023/12/25 10:48:55;;;;;;;0.00;0.00;;;10.40;99.90;;;;;;5052389;28;20208;-66
2023/12/25 10:51:28;;;;;;;0.00;0.00;;;10.50;99.90;;;;;;5052563;28;20181;-66
2023/12/25 10:53:59;;;;;;;0.00;0.00;;;10.60;99.90;;;;;;5052157;28;20189;-67
2023/12/25 10:56:26;;;;;;;0.00;0.00;;;10.70;99.90;;;;;;5044420;28;20560;-68
2023/12/25 10:58:52;;;;;;;0.00;0.00;;;10.80;99.90;;;;;;5052286;28;20637;-66
2023/12/25 11:01:27;;;;;;;0.00;0.00;;;10.80;99.90;;;;;;5058692;28;20181;-66
2023/12/25 11:03:54;;;;;;;0.00;0.00;;;10.80;99.90;;;;;;5051836;28;20572;-65
2023/12/25 11:06:21;;;;;;;0.00;0.00;;;10.70;99.90;;;;;;5055275;28;20239;-66
2023/12/25 11:08:47;;;;;;;0.00;0.00;;;10.70;99.90;;;;;;5052478;28;20181;-65
2023/12/25 11:11:13;;;;;;;0.00;0.00;;;10.70;99.90;;;;;;5051155;28;20204;-66
2023/12/25 11:13:40;;;;;;;0.00;0.00;;;10.60;99.90;;;;;;5052216;28;20186;-66
2023/12/25 11:16:06;;;;;;;0.00;0.00;;;10.60;99.90;;;;;;5051827;28;20177;-67
2023/12/25 11:18:36;;;;;;;0.00;0.00;;;10.60;99.90;;;;;;5052179;28;20192;-66
2023/12/25 11:21:07;;;;;;;0.00;0.00;;;10.50;99.90;;;;;;5052034;28;20178;-65
2023/12/25 11:23:37;;;;;;;0.00;0.00;;;10.50;99.90;;;;;;5051964;28;20185;-65
2023/12/25 11:26:07;;;;;;;0.00;0.00;;;10.50;99.90;;;;;;5051191;28;20216;-65
2023/12/25 11:28:38;;;;;;;0.00;0.00;;;10.60;99.90;;;;;;5050537;28;20235;-66
2023/12/25 11:31:04;;;;;;;0.00;0.00;;;10.60;99.90;;;;;;5052135;28;20664;-65
2023/12/25 11:33:42;;;;;;;0.00;0.00;;;10.70;99.90;;;;;;5051919;28;20169;-65
2023/12/25 11:36:14;;;;;;;0.00;0.00;;;10.70;99.90;;;;;;5051249;28;20177;-66
2023/12/25 11:38:56;;;;;;;0.00;0.00;;;10.80;99.90;;;;;;5051575;28;20217;-65
2023/12/25 11:41:23;;;;;;;0.00;0.00;;;10.90;99.90;;;;;;5051495;28;20216;-65
2023/12/25 11:43:48;;;;;;;0.00;0.00;;;10.90;99.90;;;;;;5051103;28;20525;-65
2023/12/25 11:46:20;;;;;;;0.00;0.00;;;11.00;99.90;;;;;;5051790;28;20193;-66
2023/12/25 11:48:47;;;;;;;0.00;0.00;;;11.00;99.90;;;;;;5051529;28;20258;-65
2023/12/25 11:51:25;;;;;;;0.00;0.00;;;11.00;99.90;;;;;;5051412;28;20275;-65
2023/12/25 11:53:52;;;;;;;0.00;0.00;;;11.00;99.90;;;;;;5051103;28;20264;-64
2023/12/25 11:56:17;;;;;;;0.00;0.00;;;11.10;99.90;;;;;;5050852;28;20277;-65
2023/12/25 11:58:44;;;;;;;0.00;0.00;;;11.00;99.90;;;;;;5051724;28;20227;-66
2023/12/25 12:01:19;;;;;;;0.00;0.00;;;10.90;99.90;;;;;;5051282;28;20177;-66
2023/12/25 12:03:48;;;;;;;0.00;0.00;;;10.80;99.90;;;;;;5044655;28;20184;-65
2023/12/25 12:06:16;;;;;;;0.00;0.00;;;10.70;99.90;;;;;;5059327;28;20196;-67
2023/12/25 12:08:42;;;;;;;0.00;0.00;;;10.70;99.90;;;;;;5051345;28;20345;-65
2023/12/25 12:11:09;;;;;;;0.00;0.00;;;10.70;99.90;;;;;;5051124;28;20181;-66
2023/12/25 12:13:36;;;;;;;0.00;0.00;;;10.70;99.90;;;;;;5051258;28;20185;-66
2023/12/25 12:16:02;;;;;;;0.00;0.00;;;10.80;99.90;;;;;;5050641;28;20322;-65
2023/12/25 12:18:27;;;;;;;0.00;0.00;;;10.80;99.90;;;;;;5051351;28;20182;-65
2023/12/25 12:20:54;;;;;;;0.00;0.00;;;10.80;99.90;;;;;;5050759;28;20173;-66
2023/12/25 12:23:20;;;;;;;0.00;0.00;;;10.80;99.90;;;;;;5051111;28;20189;-66
2023/12/25 12:25:46;;;;;;;0.00;0.00;;;10.80;99.90;;;;;;5050658;28;20213;-66
2023/12/25 12:28:14;;;;;;;0.00;0.00;;;10.90;99.90;;;;;;5035211;28;20275;-66
2023/12/25 12:30:40;;;;;;;0.00;0.00;;;10.80;99.90;;;;;;5050938;28;20181;-66
2023/12/25 12:33:08;;;;;;;0.00;0.00;;;10.80;99.90;;;;;;5050585;28;20184;-65
2023/12/25 12:35:34;;;;;;;0.00;0.00;;;10.90;99.90;;;;;;5050829;28;20243;-66
2023/12/25 12:38:00;;;;;;;0.00;0.00;;;10.80;99.90;;;;;;5049926;28;20182;-67
2023/12/25 12:40:27;;;;;;;0.00;0.00;;;10.80;99.90;;;;;;5049961;28;20742;-66
2023/12/25 12:42:53;;;;;;;0.00;0.00;;;10.80;99.90;;;;;;5050263;28;20205;-66
2023/12/25 12:45:19;;;;;;;0.00;0.00;;;10.70;99.90;;;;;;5050527;28;20300;-67